Time;durP1;ratioP1;P1;durP2;ratioP2;P2;SDS_P1;SDS_P2;PMS_P1;PMS_P2;Temp;Humidity;BMP_temperature;BMP_pressure;BME280_temperature;BME280_humidity;BME280_pressure;Samples;Min_cycle;Max_cycle;Signal;HPM_P1;HPM_P2
2022/11/23 00:09:50;;;;;;;6.88;4.00;;;8.50;99.90;;;;;;20641790;28;20046;-43
2022/11/23 00:19:51;;;;;;;11.43;4.65;;;8.50;99.90;;;;;;20643742;28;20049;-43
2022/11/23 00:29:52;;;;;;;5.68;3.38;;;8.60;99.90;;;;;;20644853;28;20402;-44
2022/11/23 00:39:53;;;;;;;10.55;4.50;;;8.60;99.90;;;;;;20642153;28;20074;-43
2022/11/23 00:49:54;;;;;;;12.75;6.18;;;8.40;99.90;;;;;;20644937;28;20042;-44
2022/11/23 00:59:55;;;;;;;16.75;6.15;;;8.30;99.90;;;;;;20625920;28;20525;-44
2022/11/23 01:09:56;;;;;;;18.13;8.63;;;8.30;99.90;;;;;;20619603;28;20125;-44
2022/11/23 01:19:57;;;;;;;9.60;4.78;;;8.30;99.90;;;;;;20619357;28;20352;-44
2022/11/23 01:29:59;;;;;;;8.38;5.65;;;8.30;99.90;;;;;;20618433;28;20051;-43
2022/11/23 01:40:00;;;;;;;13.57;5.47;;;8.30;99.90;;;;;;20624236;28;20467;-43
2022/11/23 01:50:01;;;;;;;9.50;4.43;;;8.40;99.90;;;;;;20640907;28;20060;-44
2022/11/23 02:00:03;;;;;;;13.75;5.43;;;8.40;99.90;;;;;;20645748;28;20149;-44
2022/11/23 02:10:04;;;;;;;7.25;4.75;;;8.40;99.90;;;;;;20635693;28;20129;-44
2022/11/23 02:20:13;;;;;;;11.52;4.72;;;8.40;99.90;;;;;;20627537;28;20596;-43
2022/11/23 02:30:14;;;;;;;11.00;5.90;;;8.40;99.90;;;;;;20622493;28;20077;-43
2022/11/23 02:40:36;;;;;;;26.23;6.47;;;8.30;99.90;;;;;;20618075;28;20148;-43
2022/11/23 02:50:37;;;;;;;7.15;3.85;;;8.30;99.90;;;;;;20604416;28;20899;-43
2022/11/23 03:00:38;;;;;;;10.57;4.40;;;8.20;99.90;;;;;;20613615;28;20038;-43
2022/11/23 03:10:39;;;;;;;9.52;3.58;;;8.20;99.90;;;;;;20613907;28;21658;-44
2022/11/23 03:20:40;;;;;;;9.88;4.45;;;8.20;99.90;;;;;;20589360;28;20053;-43
2022/11/23 03:30:42;;;;;;;9.70;3.80;;;8.10;99.90;;;;;;20611561;28;20181;-44
2022/11/23 03:40:47;;;;;;;8.70;5.10;;;8.10;99.90;;;;;;20585473;28;20157;-43
2022/11/23 03:50:48;;;;;;;9.85;4.57;;;8.20;99.90;;;;;;20600899;28;20181;-42
2022/11/23 04:00:49;;;;;;;9.23;4.50;;;8.20;99.90;;;;;;20606140;28;20516;-42
2022/11/23 04:10:50;;;;;;;8.52;3.75;;;8.30;99.90;;;;;;20584473;28;20169;-41
2022/11/23 04:20:51;;;;;;;16.85;4.50;;;8.30;99.90;;;;;;20594562;28;20046;-41
2022/11/23 04:30:52;;;;;;;7.47;3.55;;;8.30;99.90;;;;;;20590261;28;20038;-41
2022/11/23 04:40:53;;;;;;;10.25;4.63;;;8.30;99.90;;;;;;20574246;28;20129;-41
2022/11/23 04:50:54;;;;;;;7.00;3.75;;;8.30;99.90;;;;;;20588903;28;20133;-41
2022/11/23 05:00:57;;;;;;;9.75;3.33;;;8.30;99.90;;;;;;20605503;28;20281;-41
2022/11/23 05:10:58;;;;;;;5.80;2.95;;;8.40;99.90;;;;;;20603244;28;22791;-41
2022/11/23 05:20:59;;;;;;;5.82;2.92;;;8.30;99.90;;;;;;20608478;28;20430;-41
2022/11/23 05:31:00;;;;;;;6.20;3.85;;;8.30;99.90;;;;;;20624303;28;20038;-40
2022/11/23 05:41:01;;;;;;;7.60;3.75;;;8.30;99.90;;;;;;20603002;28;20050;-42
2022/11/23 05:51:02;;;;;;;7.20;3.42;;;8.40;99.90;;;;;;20619902;28;20043;-41
2022/11/23 06:01:03;;;;;;;6.72;2.75;;;8.40;99.90;;;;;;20609828;28;20141;-41
2022/11/23 06:11:04;;;;;;;5.68;2.40;;;8.50;99.90;;;;;;20611073;28;20172;-45
2022/11/23 06:21:05;;;;;;;8.15;3.20;;;8.30;99.90;;;;;;20602543;28;20039;-43
2022/11/23 06:31:07;;;;;;;6.53;3.40;;;8.30;99.90;;;;;;20609419;28;20100;-44
2022/11/23 06:41:08;;;;;;;12.60;3.00;;;8.20;99.90;;;;;;20603384;28;20468;-43
2022/11/23 06:51:09;;;;;;;9.52;2.88;;;8.20;99.90;;;;;;20605124;28;20431;-42
2022/11/23 07:01:11;;;;;;;8.38;3.20;;;8.20;99.90;;;;;;20597103;28;20141;-42
2022/11/23 07:11:12;;;;;;;6.32;1.90;;;8.00;99.90;;;;;;20593124;28;20110;-42
2022/11/23 07:21:13;;;;;;;14.80;2.17;;;7.80;99.90;;;;;;20601860;28;20584;-41
2022/11/23 07:31:15;;;;;;;3.38;1.50;;;7.70;99.90;;;;;;20627748;28;20434;-43
2022/11/23 07:41:16;;;;;;;7.22;2.25;;;7.60;99.90;;;;;;20617685;28;20045;-42
2022/11/23 07:51:18;;;;;;;9.48;1.58;;;7.70;99.90;;;;;;20625908;28;20038;-42
2022/11/23 08:01:19;;;;;;;5.13;1.83;;;7.80;99.90;;;;;;20624229;28;20128;-41
2022/11/23 08:11:21;;;;;;;6.53;1.98;;;7.90;99.90;;;;;;20625654;28;20155;-42
2022/11/23 08:21:22;;;;;;;6.43;3.13;;;7.90;99.90;;;;;;20614729;28;20197;-42
2022/11/23 08:31:23;;;;;;;13.75;2.03;;;8.00;99.90;;;;;;20626634;28;20556;-42
2022/11/23 08:41:24;;;;;;;4.10;1.00;;;8.00;99.90;;;;;;20610496;28;20635;-42
2022/11/23 08:51:25;;;;;;;14.10;2.47;;;8.10;99.90;;;;;;20608541;28;20254;-41
2022/11/23 09:01:26;;;;;;;4.28;1.90;;;8.10;99.90;;;;;;20608312;28;20133;-42
2022/11/23 09:11:27;;;;;;;4.18;1.33;;;8.40;99.90;;;;;;20608828;28;20069;-42
2022/11/23 09:21:32;;;;;;;5.68;1.25;;;8.50;99.90;;;;;;20603287;28;20049;-41
2022/11/23 09:31:36;;;;;;;3.90;1.98;;;8.60;99.90;;;;;;20611063;28;20531;-42
2022/11/23 09:41:40;;;;;;;4.88;1.60;;;8.80;99.90;;;;;;20588660;28;21033;-41
2022/11/23 09:51:43;;;;;;;7.95;2.63;;;8.80;99.90;;;;;;20600482;28;20728;-42
2022/11/23 10:01:44;;;;;;;6.22;2.88;;;9.00;99.90;;;;;;20595601;28;20492;-41
2022/11/23 10:11:54;;;;;;;8.57;1.88;;;9.00;99.90;;;;;;20613083;28;20345;-42
2022/11/23 10:22:04;;;;;;;5.80;1.40;;;9.20;99.90;;;;;;20613161;28;20046;-41
2022/11/23 10:32:33;;;;;;;4.05;2.00;;;9.40;99.90;;;;;;20618341;28;20062;-41
2022/11/23 10:42:43;;;;;;;3.47;1.67;;;9.90;99.90;;;;;;20621063;28;20431;-42
2022/11/23 10:52:54;;;;;;;2.85;1.10;;;10.10;99.90;;;;;;20585075;28;21920;-42
2022/11/23 11:02:56;;;;;;;8.02;2.28;;;9.70;99.90;;;;;;20597727;28;20137;-41
2022/11/23 11:12:57;;;;;;;2.05;0.88;;;9.60;99.90;;;;;;20601976;28;20596;-42
2022/11/23 11:23:02;;;;;;;3.55;0.98;;;9.40;99.90;;;;;;20611435;28;20121;-42
2022/11/23 11:33:08;;;;;;;6.15;2.13;;;9.10;99.90;;;;;;20632404;28;20038;-42
2022/11/23 11:43:28;;;;;;;2.90;1.40;;;9.50;99.90;;;;;;20627725;28;20493;-41
2022/11/23 11:53:38;;;;;;;2.92;0.80;;;10.00;99.90;;;;;;20601579;28;20508;-42
2022/11/23 12:03:46;;;;;;;47.03;1.98;;;10.10;99.90;;;;;;20597864;28;20853;-42
2022/11/23 12:13:48;;;;;;;11.27;1.13;;;10.50;99.90;;;;;;20595198;28;20124;-43
2022/11/23 12:24:03;;;;;;;1.73;0.60;;;10.70;99.90;;;;;;20584286;28;20052;-42
2022/11/23 12:34:46;;;;;;;1.92;0.68;;;10.70;99.90;;;;;;20595970;28;20187;-43
2022/11/23 12:45:20;;;;;;;2.15;0.82;;;10.90;99.90;;;;;;20594783;28;20250;-43
2022/11/23 12:55:21;;;;;;;2.00;1.30;;;10.50;99.90;;;;;;20582035;28;20121;-43
2022/11/23 13:05:40;;;;;;;1.52;0.40;;;10.00;99.90;;;;;;20593772;28;20148;-42
2022/11/23 13:16:03;;;;;;;1.60;0.47;;;10.00;99.90;;;;;;20557846;28;21426;-42
2022/11/23 13:26:22;;;;;;;1.65;0.60;;;9.90;99.90;;;;;;20552909;28;20104;-42
2022/11/23 13:36:29;;;;;;;3.35;0.73;;;10.00;99.90;;;;;;20527669;28;1088506;-41
2022/11/23 13:46:31;;;;;;;1.43;1.10;;;9.60;99.90;;;;;;20554432;28;20146;-41
2022/11/23 13:56:40;;;;;;;3.17;0.70;;;9.20;99.90;;;;;;20551267;28;20501;-41
2022/11/23 14:07:10;;;;;;;2.90;0.82;;;8.90;99.90;;;;;;20487401;28;21847;-42
2022/11/23 14:17:29;;;;;;;2.58;0.90;;;8.60;99.90;;;;;;20525006;28;20046;-41
2022/11/23 14:27:40;;;;;;;13.73;1.98;;;8.50;99.90;;;;;;20528492;28;20104;-41
2022/11/23 14:38:10;;;;;;;3.78;1.77;;;8.50;99.90;;;;;;20565618;28;20412;-42
2022/11/23 14:48:28;;;;;;;4.88;1.73;;;8.40;99.90;;;;;;20583038;28;20643;-43
2022/11/23 14:58:31;;;;;;;1.15;0.77;;;8.40;99.90;;;;;;20602098;28;20056;-41
2022/11/23 15:08:40;;;;;;;7.28;1.58;;;8.40;99.90;;;;;;20580590;28;20038;-42
2022/11/23 15:18:42;;;;;;;4.55;1.20;;;8.40;99.90;;;;;;20566027;28;22557;-42
2022/11/23 15:28:43;;;;;;;2.70;1.55;;;8.40;99.90;;;;;;20589854;28;20034;-42
2022/11/23 15:38:44;;;;;;;7.85;1.88;;;8.40;99.90;;;;;;20593466;28;20054;-43
2022/11/23 15:48:49;;;;;;;3.17;1.13;;;8.40;99.90;;;;;;20587820;28;21357;-41
2022/11/23 15:58:52;;;;;;;5.07;1.20;;;8.40;99.90;;;;;;20605207;28;20088;-42
2022/11/23 16:08:53;;;;;;;2.28;0.50;;;8.30;99.90;;;;;;20600064;28;20096;-42
2022/11/23 16:18:57;;;;;;;2.60;1.25;;;8.40;99.90;;;;;;20597604;28;20133;-41
2022/11/23 16:28:59;;;;;;;1.95;1.13;;;8.50;99.90;;;;;;20595207;28;20044;-41
2022/11/23 16:39:00;;;;;;;4.03;1.30;;;8.50;99.90;;;;;;20589281;28;20034;-42
2022/11/23 16:49:01;;;;;;;7.82;5.13;;;8.60;99.90;;;;;;20614227;28;20053;-41
2022/11/23 16:59:02;;;;;;;3.97;2.17;;;8.60;99.90;;;;;;20611118;28;20109;-43
2022/11/23 17:09:03;;;;;;;4.47;1.50;;;8.70;99.90;;;;;;20598626;28;20072;-42
2022/11/23 17:19:15;;;;;;;2.78;1.90;;;8.70;99.90;;;;;;20607060;28;20125;-42
2022/11/23 17:29:18;;;;;;;4.70;2.03;;;8.70;99.90;;;;;;20596806;28;20038;-41
2022/11/23 17:39:23;;;;;;;2.95;1.83;;;8.70;99.90;;;;;;20539181;28;20466;-41
2022/11/23 17:49:27;;;;;;;4.40;2.25;;;8.60;99.90;;;;;;20556841;28;20422;-41
2022/11/23 17:59:27;;;;;;;4.63;2.30;;;8.50;99.90;;;;;;20549759;28;20400;-41
2022/11/23 18:09:29;;;;;;;5.93;2.65;;;8.50;99.90;;;;;;20531925;28;20079;-42
2022/11/23 18:19:30;;;;;;;4.50;2.30;;;8.40;99.90;;;;;;20533866;28;20872;-42
2022/11/23 18:29:31;;;;;;;3.60;1.38;;;8.30;99.90;;;;;;20551230;28;20418;-41
2022/11/23 18:39:32;;;;;;;3.72;2.30;;;8.30;99.90;;;;;;20588784;28;20042;-42
2022/11/23 18:49:33;;;;;;;5.65;2.58;;;8.20;99.90;;;;;;20604139;28;20497;-42
2022/11/23 18:59:34;;;;;;;7.93;1.95;;;8.10;99.90;;;;;;20621882;28;20505;-41
2022/11/23 19:09:35;;;;;;;4.70;2.47;;;8.10;99.90;;;;;;20611799;28;20045;-41
2022/11/23 19:19:37;;;;;;;5.53;2.60;;;8.10;99.90;;;;;;20612083;28;21872;-41
2022/11/23 19:29:38;;;;;;;11.40;3.10;;;8.00;99.90;;;;;;20614046;28;20190;-41
2022/11/23 19:39:39;;;;;;;8.85;3.60;;;8.00;99.90;;;;;;20616923;28;20073;-41
2022/11/23 19:49:40;;;;;;;4.80;2.63;;;7.90;99.90;;;;;;20615815;28;20084;-41
2022/11/23 19:59:41;;;;;;;6.35;2.38;;;7.90;99.90;;;;;;20615226;28;20043;-41
2022/11/23 20:09:42;;;;;;;5.82;2.20;;;7.80;99.90;;;;;;20611983;28;20072;-41
2022/11/23 20:19:43;;;;;;;5.78;2.63;;;7.90;99.90;;;;;;20613831;28;20073;-42
2022/11/23 20:29:44;;;;;;;4.93;2.05;;;7.90;99.90;;;;;;20599605;28;20046;-42
2022/11/23 20:39:45;;;;;;;4.28;1.85;;;7.90;99.90;;;;;;20610546;28;20050;-42
2022/11/23 20:49:46;;;;;;;5.32;2.60;;;8.00;99.90;;;;;;20629685;28;20030;-42
2022/11/23 20:59:47;;;;;;;5.82;3.20;;;8.00;99.90;;;;;;20631132;28;20353;-41
2022/11/23 21:09:48;;;;;;;5.43;1.92;;;7.90;99.90;;;;;;20624701;28;20180;-42
2022/11/23 21:19:49;;;;;;;7.75;2.65;;;8.00;99.90;;;;;;20624197;28;20135;-42
2022/11/23 21:29:51;;;;;;;15.63;3.92;;;8.00;99.90;;;;;;20606677;28;20156;-42
2022/11/23 21:39:52;;;;;;;10.32;2.75;;;7.90;99.90;;;;;;20616226;28;20365;-42
2022/11/23 21:49:53;;;;;;;6.28;2.65;;;8.00;99.90;;;;;;20633947;28;20723;-43
2022/11/23 21:59:54;;;;;;;10.57;2.95;;;8.10;99.90;;;;;;20643449;28;20046;-43
2022/11/23 22:09:55;;;;;;;13.63;3.95;;;8.00;99.90;;;;;;20648462;28;20047;-43
2022/11/23 22:19:56;;;;;;;6.38;2.45;;;8.00;99.90;;;;;;20649708;28;20086;-43
2022/11/23 22:29:57;;;;;;;4.40;2.10;;;8.10;99.90;;;;;;20649529;28;20478;-42
2022/11/23 22:39:58;;;;;;;12.23;2.70;;;8.20;99.90;;;;;;20637897;28;20815;-43
2022/11/23 22:49:59;;;;;;;4.70;2.13;;;8.20;99.90;;;;;;20637987;28;20077;-42
2022/11/23 23:00:01;;;;;;;6.90;2.80;;;8.30;99.90;;;;;;20620882;28;20049;-42
2022/11/23 23:10:02;;;;;;;9.02;3.00;;;8.30;99.90;;;;;;20628873;28;20101;-43
2022/11/23 23:20:04;;;;;;;7.28;3.17;;;8.30;99.90;;;;;;20622184;28;20088;-41
2022/11/23 23:30:05;;;;;;;9.80;3.03;;;8.40;99.90;;;;;;20607728;28;20556;-42
2022/11/23 23:40:07;;;;;;;8.27;2.97;;;8.50;99.90;;;;;;20618977;28;20148;-42
2022/11/23 23:50:08;;;;;;;14.00;3.05;;;8.50;99.90;;;;;;20602593;28;20124;-43
